Archival Weather

Chicago O'Hare International

Chicago, Illinois (KORD)

Report from: Wednesday, December 21, 2022 6:51 AM CST
Current time: Friday, June 21, 2024 2:21 AM CDT

Current weather – Weather history – Daily summaries
Weather forecast

Temperature-11.1°C (12.0°F)
Wind chill-16.3°C (2.7°F)
Dew point-16.1°C (3.0°F)
Winds 5 kts (2.6 m/s, 5.8 mph) North (360°)
Visibility10 mi. (16.1 km)
Clouds Few clouds 1,900 ft. (579 m)
Ceiling: Broken clouds 25,000 ft. (7,620 m)
Altimeter30.46 in.Hg (1031 mB)
Relative humidity66 %
Density altitude-3,899 ft. (-1,188 m)
Sea-level pressure103.3 kPa (1033 mB, 30.49 in.Hg)
Remarks Automated weather observing station with precipitation discriminator
Flight conditions Visual Meteorological Conditions
Raw dataKORD 211251Z 36005KT 10SM FEW019 BKN250 M11/M16 A3046 RMK AO2 SLP325 T11111161
An error has occurred. This application may no longer respond until reloaded. Reload 🗙